sensor_id;sensor_type;location;lat;lon;timestamp;P1;durP1;ratioP1;P2;durP2;ratioP2
68375;SDS011;55318;52.068;5.188;2022-09-01T00:01:45;0.7;;;0.6;;
68375;SDS011;55318;52.068;5.188;2022-09-01T00:03:25;1.4;;;1.11;;
68375;SDS011;55318;52.068;5.188;2022-09-01T00:05:04;0.8;;;0.7;;
68375;SDS011;55318;52.068;5.188;2022-09-01T00:06:42;1.11;;;0.6;;
68375;SDS011;55318;52.068;5.188;2022-09-01T00:09:56;0.8;;;0.5;;
68375;SDS011;55318;52.068;5.188;2022-09-01T00:11:33;1.0;;;0.9;;
68375;SDS011;55318;52.068;5.188;2022-09-01T00:13:11;0.7;;;0.7;;
68375;SDS011;55318;52.068;5.188;2022-09-01T00:14:47;1.11;;;0.8;;
68375;SDS011;55318;52.068;5.188;2022-09-01T00:18:00;0.9;;;0.7;;
68375;SDS011;55318;52.068;5.188;2022-09-01T00:19:38;1.3;;;0.9;;
68375;SDS011;55318;52.068;5.188;2022-09-01T00:21:15;1.11;;;0.6;;
68375;SDS011;55318;52.068;5.188;2022-09-01T00:24:31;1.6;;;0.8;;
68375;SDS011;55318;52.068;5.188;2022-09-01T00:26:08;2.7;;;0.9;;
68375;SDS011;55318;52.068;5.188;2022-09-01T00:29:20;1.3;;;0.9;;
68375;SDS011;55318;52.068;5.188;2022-09-01T00:32:33;0.9;;;0.5;;
68375;SDS011;55318;52.068;5.188;2022-09-01T00:34:09;2.0;;;0.7;;
68375;SDS011;55318;52.068;5.188;2022-09-01T00:35:46;1.6;;;0.8;;
68375;SDS011;55318;52.068;5.188;2022-09-01T00:38:59;2.8;;;0.7;;
68375;SDS011;55318;52.068;5.188;2022-09-01T00:40:35;3.1;;;0.9;;
68375;SDS011;55318;52.068;5.188;2022-09-01T00:42:12;1.5;;;0.7;;
68375;SDS011;55318;52.068;5.188;2022-09-01T00:45:28;1.8;;;1.0;;
68375;SDS011;55318;52.068;5.188;2022-09-01T00:47:06;2.0;;;1.2;;
68375;SDS011;55318;52.068;5.188;2022-09-01T00:48:42;2.21;;;0.8;;
68375;SDS011;55318;52.068;5.188;2022-09-01T00:50:18;2.0;;;1.11;;
68375;SDS011;55318;52.068;5.188;2022-09-01T00:53:44;2.1;;;0.9;;
68375;SDS011;55318;52.068;5.188;2022-09-01T00:55:24;2.9;;;1.0;;
68375;SDS011;55318;52.068;5.188;2022-09-01T00:57:03;2.9;;;1.5;;
68375;SDS011;55318;52.068;5.188;2022-09-01T00:58:41;1.3;;;1.0;;
68375;SDS011;55318;52.068;5.188;2022-09-01T01:01:59;1.3;;;1.0;;
68375;SDS011;55318;52.068;5.188;2022-09-01T01:03:36;1.2;;;0.9;;
68375;SDS011;55318;52.068;5.188;2022-09-01T01:05:14;3.6;;;1.2;;
68375;SDS011;55318;52.068;5.188;2022-09-01T01:08:37;3.4;;;1.2;;
68375;SDS011;55318;52.068;5.188;2022-09-01T01:10:18;2.5;;;1.11;;
68375;SDS011;55318;52.068;5.188;2022-09-01T01:11:59;2.8;;;1.11;;
68375;SDS011;55318;52.068;5.188;2022-09-01T01:13:47;2.9;;;1.3;;
68375;SDS011;55318;52.068;5.188;2022-09-01T01:15:27;1.6;;;1.0;;
68375;SDS011;55318;52.068;5.188;2022-09-01T01:18:40;1.4;;;0.9;;
68375;SDS011;55318;52.068;5.188;2022-09-01T01:23:13;1.2;;;1.11;;
68375;SDS011;55318;52.068;5.188;2022-09-01T01:24:57;1.4;;;1.2;;
68375;SDS011;55318;52.068;5.188;2022-09-01T01:26:33;1.9;;;1.2;;
68375;SDS011;55318;52.068;5.188;2022-09-01T01:28:12;1.5;;;1.0;;
68375;SDS011;55318;52.068;5.188;2022-09-01T01:31:31;0.9;;;0.9;;
68375;SDS011;55318;52.068;5.188;2022-09-01T01:33:08;0.8;;;0.8;;
68375;SDS011;55318;52.068;5.188;2022-09-01T01:34:46;1.8;;;0.8;;
68375;SDS011;55318;52.068;5.188;2022-09-01T01:36:31;1.5;;;1.11;;
68375;SDS011;55318;52.068;5.188;2022-09-01T01:39:48;1.7;;;1.2;;
68375;SDS011;55318;52.068;5.188;2022-09-01T01:41:23;3.4;;;1.3;;
68375;SDS011;55318;52.068;5.188;2022-09-01T01:43:01;1.0;;;1.0;;
68375;SDS011;55318;52.068;5.188;2022-09-01T01:44:39;2.4;;;0.9;;
68375;SDS011;55318;52.068;5.188;2022-09-01T01:47:56;2.8;;;1.3;;
68375;SDS011;55318;52.068;5.188;2022-09-01T01:49:34;0.7;;;0.7;;
68375;SDS011;55318;52.068;5.188;2022-09-01T01:51:12;2.1;;;1.3;;
68375;SDS011;55318;52.068;5.188;2022-09-01T01:54:31;1.7;;;0.9;;
68375;SDS011;55318;52.068;5.188;2022-09-01T01:56:09;0.9;;;0.8;;
68375;SDS011;55318;52.068;5.188;2022-09-01T01:57:49;2.1;;;1.3;;
68375;SDS011;55318;52.068;5.188;2022-09-01T01:59:25;1.2;;;1.0;;
68375;SDS011;55318;52.068;5.188;2022-09-01T02:02:38;1.0;;;0.9;;
68375;SDS011;55318;52.068;5.188;2022-09-01T02:04:18;1.0;;;0.7;;
68375;SDS011;55318;52.068;5.188;2022-09-01T02:05:55;1.11;;;1.0;;
68375;SDS011;55318;52.068;5.188;2022-09-01T02:09:08;1.7;;;1.11;;
68375;SDS011;55318;52.068;5.188;2022-09-01T02:10:45;2.5;;;1.2;;
68375;SDS011;55318;52.068;5.188;2022-09-01T02:12:24;1.11;;;0.9;;
68375;SDS011;55318;52.068;5.188;2022-09-01T02:14:00;0.8;;;0.8;;
68375;SDS011;55318;52.068;5.188;2022-09-01T02:17:21;0.9;;;0.8;;
68375;SDS011;55318;52.068;5.188;2022-09-01T02:18:58;2.21;;;1.0;;
68375;SDS011;55318;52.068;5.188;2022-09-01T02:20:36;1.5;;;0.6;;
68375;SDS011;55318;52.068;5.188;2022-09-01T02:23:50;1.4;;;0.9;;
68375;SDS011;55318;52.068;5.188;2022-09-01T02:25:30;1.7;;;0.8;;
68375;SDS011;55318;52.068;5.188;2022-09-01T02:27:06;2.7;;;1.0;;
68375;SDS011;55318;52.068;5.188;2022-09-01T02:28:43;1.5;;;1.11;;
68375;SDS011;55318;52.068;5.188;2022-09-01T02:32:01;1.3;;;0.6;;
68375;SDS011;55318;52.068;5.188;2022-09-01T02:33:37;2.0;;;0.9;;
68375;SDS011;55318;52.068;5.188;2022-09-01T02:35:18;1.2;;;0.8;;
68375;SDS011;55318;52.068;5.188;2022-09-01T02:36:56;2.9;;;1.0;;
68375;SDS011;55318;52.068;5.188;2022-09-01T02:40:10;2.0;;;1.2;;
68375;SDS011;55318;52.068;5.188;2022-09-01T02:41:46;1.4;;;1.0;;
68375;SDS011;55318;52.068;5.188;2022-09-01T02:43:22;1.7;;;1.4;;
68375;SDS011;55318;52.068;5.188;2022-09-01T02:46:37;0.7;;;0.7;;
68375;SDS011;55318;52.068;5.188;2022-09-01T02:48:23;0.7;;;0.7;;
68375;SDS011;55318;52.068;5.188;2022-09-01T02:50:02;1.11;;;1.11;;
68375;SDS011;55318;52.068;5.188;2022-09-01T02:51:40;1.4;;;0.6;;
68375;SDS011;55318;52.068;5.188;2022-09-01T02:54:56;1.9;;;1.11;;
68375;SDS011;55318;52.068;5.188;2022-09-01T02:56:33;1.0;;;0.8;;
68375;SDS011;55318;52.068;5.188;2022-09-01T02:58:17;0.5;;;0.5;;
68375;SDS011;55318;52.068;5.188;2022-09-01T03:01:33;2.4;;;0.8;;
68375;SDS011;55318;52.068;5.188;2022-09-01T03:03:11;1.4;;;0.6;;
68375;SDS011;55318;52.068;5.188;2022-09-01T03:04:53;1.11;;;0.7;;
68375;SDS011;55318;52.068;5.188;2022-09-01T03:06:33;1.6;;;1.0;;
68375;SDS011;55318;52.068;5.188;2022-09-01T03:09:51;2.0;;;0.8;;
68375;SDS011;55318;52.068;5.188;2022-09-01T03:11:29;1.7;;;0.7;;
68375;SDS011;55318;52.068;5.188;2022-09-01T03:13:12;1.11;;;0.7;;
68375;SDS011;55318;52.068;5.188;2022-09-01T03:14:49;1.11;;;0.8;;
68375;SDS011;55318;52.068;5.188;2022-09-01T03:18:03;1.4;;;0.9;;
68375;SDS011;55318;52.068;5.188;2022-09-01T03:19:44;0.9;;;0.7;;
68375;SDS011;55318;52.068;5.188;2022-09-01T03:21:20;1.9;;;0.9;;
68375;SDS011;55318;52.068;5.188;2022-09-01T03:22:58;0.9;;;0.8;;
68375;SDS011;55318;52.068;5.188;2022-09-01T03:26:12;1.2;;;0.8;;
68375;SDS011;55318;52.068;5.188;2022-09-01T03:27:50;1.5;;;0.9;;
68375;SDS011;55318;52.068;5.188;2022-09-01T03:29:27;0.7;;;0.7;;
68375;SDS011;55318;52.068;5.188;2022-09-01T03:32:41;0.8;;;0.8;;
68375;SDS011;55318;52.068;5.188;2022-09-01T03:34:22;1.3;;;0.8;;
68375;SDS011;55318;52.068;5.188;2022-09-01T03:35:58;2.21;;;0.8;;
68375;SDS011;55318;52.068;5.188;2022-09-01T03:37:36;2.6;;;1.3;;
68375;SDS011;55318;52.068;5.188;2022-09-01T03:40:49;0.9;;;0.9;;
68375;SDS011;55318;52.068;5.188;2022-09-01T03:42:28;1.5;;;1.11;;
68375;SDS011;55318;52.068;5.188;2022-09-01T03:44:06;2.8;;;1.0;;
68375;SDS011;55318;52.068;5.188;2022-09-01T03:47:20;2.4;;;1.11;;
68375;SDS011;55318;52.068;5.188;2022-09-01T03:48:57;1.0;;;0.9;;
68375;SDS011;55318;52.068;5.188;2022-09-01T03:50:37;1.0;;;0.9;;
68375;SDS011;55318;52.068;5.188;2022-09-01T03:52:18;1.11;;;0.7;;
68375;SDS011;55318;52.068;5.188;2022-09-01T03:55:31;1.2;;;0.8;;
68375;SDS011;55318;52.068;5.188;2022-09-01T03:57:10;1.11;;;1.0;;
68375;SDS011;55318;52.068;5.188;2022-09-01T03:58:46;2.0;;;1.0;;
68375;SDS011;55318;52.068;5.188;2022-09-01T04:02:02;1.5;;;1.0;;
68375;SDS011;55318;52.068;5.188;2022-09-01T04:03:39;1.5;;;1.0;;
68375;SDS011;55318;52.068;5.188;2022-09-01T04:05:17;1.0;;;0.9;;
68375;SDS011;55318;52.068;5.188;2022-09-01T04:06:54;1.11;;;0.8;;
68375;SDS011;55318;52.068;5.188;2022-09-01T04:10:10;2.5;;;1.0;;
68375;SDS011;55318;52.068;5.188;2022-09-01T04:11:47;0.9;;;0.8;;
68375;SDS011;55318;52.068;5.188;2022-09-01T04:13:25;0.8;;;0.8;;
68375;SDS011;55318;52.068;5.188;2022-09-01T04:19:38;1.11;;;0.9;;
68375;SDS011;55318;52.068;5.188;2022-09-01T04:22:51;1.0;;;0.9;;
68375;SDS011;55318;52.068;5.188;2022-09-01T04:24:28;1.4;;;1.0;;
68375;SDS011;55318;52.068;5.188;2022-09-01T04:26:08;1.8;;;1.0;;
68375;SDS011;55318;52.068;5.188;2022-09-01T04:27:48;1.11;;;1.0;;
68375;SDS011;55318;52.068;5.188;2022-09-01T04:31:09;1.5;;;1.2;;
68375;SDS011;55318;52.068;5.188;2022-09-01T04:32:51;1.2;;;0.8;;
68375;SDS011;55318;52.068;5.188;2022-09-01T04:34:28;1.4;;;0.8;;
68375;SDS011;55318;52.068;5.188;2022-09-01T04:37:54;1.11;;;0.8;;
68375;SDS011;55318;52.068;5.188;2022-09-01T04:39:31;0.7;;;0.7;;
68375;SDS011;55318;52.068;5.188;2022-09-01T04:41:08;2.6;;;0.8;;
68375;SDS011;55318;52.068;5.188;2022-09-01T04:42:44;3.6;;;0.8;;
68375;SDS011;55318;52.068;5.188;2022-09-01T04:45:58;1.3;;;1.2;;
68375;SDS011;55318;52.068;5.188;2022-09-01T04:47:36;1.5;;;1.11;;
68375;SDS011;55318;52.068;5.188;2022-09-01T04:49:19;2.1;;;1.4;;
68375;SDS011;55318;52.068;5.188;2022-09-01T04:50:58;1.11;;;0.9;;
68375;SDS011;55318;52.068;5.188;2022-09-01T04:54:13;2.8;;;0.8;;
68375;SDS011;55318;52.068;5.188;2022-09-01T04:55:52;1.3;;;1.0;;
68375;SDS011;55318;52.068;5.188;2022-09-01T04:57:30;1.4;;;0.7;;
68375;SDS011;55318;52.068;5.188;2022-09-01T05:00:44;1.4;;;0.7;;
68375;SDS011;55318;52.068;5.188;2022-09-01T05:02:25;0.9;;;0.8;;
68375;SDS011;55318;52.068;5.188;2022-09-01T05:04:02;2.4;;;0.9;;
68375;SDS011;55318;52.068;5.188;2022-09-01T05:05:42;2.1;;;1.11;;
68375;SDS011;55318;52.068;5.188;2022-09-01T05:08:56;1.5;;;1.11;;
68375;SDS011;55318;52.068;5.188;2022-09-01T05:10:37;1.5;;;1.11;;
68375;SDS011;55318;52.068;5.188;2022-09-01T05:12:17;3.0;;;1.11;;
68375;SDS011;55318;52.068;5.188;2022-09-01T05:13:56;2.31;;;1.11;;
68375;SDS011;55318;52.068;5.188;2022-09-01T05:17:13;2.31;;;0.9;;
68375;SDS011;55318;52.068;5.188;2022-09-01T05:18:50;4.1;;;1.11;;
68375;SDS011;55318;52.068;5.188;2022-09-01T05:20:29;1.2;;;0.7;;
68375;SDS011;55318;52.068;5.188;2022-09-01T05:23:46;0.6;;;0.6;;
68375;SDS011;55318;52.068;5.188;2022-09-01T05:25:23;0.9;;;0.9;;
68375;SDS011;55318;52.068;5.188;2022-09-01T05:27:00;0.9;;;0.8;;
68375;SDS011;55318;52.068;5.188;2022-09-01T05:28:37;2.0;;;0.9;;
68375;SDS011;55318;52.068;5.188;2022-09-01T05:31:54;2.31;;;0.8;;
68375;SDS011;55318;52.068;5.188;2022-09-01T05:33:31;0.6;;;0.6;;
68375;SDS011;55318;52.068;5.188;2022-09-01T05:35:08;0.9;;;0.8;;
68375;SDS011;55318;52.068;5.188;2022-09-01T05:38:23;1.3;;;0.8;;
68375;SDS011;55318;52.068;5.188;2022-09-01T05:40:02;0.8;;;0.7;;
68375;SDS011;55318;52.068;5.188;2022-09-01T05:41:40;0.8;;;0.7;;
68375;SDS011;55318;52.068;5.188;2022-09-01T05:43:17;0.9;;;0.9;;
68375;SDS011;55318;52.068;5.188;2022-09-01T05:46:30;0.6;;;0.6;;
68375;SDS011;55318;52.068;5.188;2022-09-01T05:48:08;1.0;;;0.8;;
68375;SDS011;55318;52.068;5.188;2022-09-01T05:49:48;4.2;;;1.6;;
68375;SDS011;55318;52.068;5.188;2022-09-01T05:53:09;0.7;;;0.7;;
68375;SDS011;55318;52.068;5.188;2022-09-01T05:54:47;0.9;;;0.8;;
68375;SDS011;55318;52.068;5.188;2022-09-01T05:56:24;1.4;;;0.8;;
68375;SDS011;55318;52.068;5.188;2022-09-01T05:58:01;1.0;;;0.6;;
68375;SDS011;55318;52.068;5.188;2022-09-01T06:01:21;1.4;;;0.8;;
68375;SDS011;55318;52.068;5.188;2022-09-01T06:03:03;1.5;;;0.9;;
68375;SDS011;55318;52.068;5.188;2022-09-01T06:04:43;1.2;;;0.7;;
68375;SDS011;55318;52.068;5.188;2022-09-01T06:06:20;3.3;;;1.3;;
68375;SDS011;55318;52.068;5.188;2022-09-01T06:09:39;1.7;;;1.11;;
68375;SDS011;55318;52.068;5.188;2022-09-01T06:11:17;1.4;;;0.9;;
68375;SDS011;55318;52.068;5.188;2022-09-01T06:12:55;1.0;;;0.8;;
68375;SDS011;55318;52.068;5.188;2022-09-01T06:14:31;0.5;;;0.5;;
68375;SDS011;55318;52.068;5.188;2022-09-01T06:17:45;1.5;;;0.9;;
68375;SDS011;55318;52.068;5.188;2022-09-01T06:19:22;1.4;;;0.7;;
68375;SDS011;55318;52.068;5.188;2022-09-01T06:20:58;1.4;;;0.6;;
68375;SDS011;55318;52.068;5.188;2022-09-01T06:24:17;0.8;;;0.8;;
68375;SDS011;55318;52.068;5.188;2022-09-01T06:25:54;1.3;;;0.6;;
68375;SDS011;55318;52.068;5.188;2022-09-01T06:27:31;1.0;;;0.7;;
68375;SDS011;55318;52.068;5.188;2022-09-01T06:30:50;2.21;;;0.9;;
68375;SDS011;55318;52.068;5.188;2022-09-01T06:32:27;0.9;;;0.8;;
68375;SDS011;55318;52.068;5.188;2022-09-01T06:34:05;1.7;;;0.8;;
68375;SDS011;55318;52.068;5.188;2022-09-01T06:35:46;0.7;;;0.7;;
68375;SDS011;55318;52.068;5.188;2022-09-01T06:39:00;0.8;;;0.5;;
68375;SDS011;55318;52.068;5.188;2022-09-01T06:40:40;1.7;;;0.8;;
68375;SDS011;55318;52.068;5.188;2022-09-01T06:42:18;2.31;;;0.7;;
68375;SDS011;55318;52.068;5.188;2022-09-01T06:43:55;1.2;;;1.0;;
68375;SDS011;55318;52.068;5.188;2022-09-01T06:47:14;2.21;;;0.8;;
68375;SDS011;55318;52.068;5.188;2022-09-01T06:48:50;0.6;;;0.5;;
68375;SDS011;55318;52.068;5.188;2022-09-01T06:50:27;3.3;;;1.0;;
68375;SDS011;55318;52.068;5.188;2022-09-01T06:53:40;1.11;;;0.6;;
68375;SDS011;55318;52.068;5.188;2022-09-01T06:55:17;0.8;;;0.8;;
68375;SDS011;55318;52.068;5.188;2022-09-01T06:56:53;1.0;;;0.8;;
68375;SDS011;55318;52.068;5.188;2022-09-01T06:58:30;0.9;;;0.6;;
68375;SDS011;55318;52.068;5.188;2022-09-01T07:01:48;0.8;;;0.6;;
68375;SDS011;55318;52.068;5.188;2022-09-01T07:03:25;0.7;;;0.7;;
68375;SDS011;55318;52.068;5.188;2022-09-01T07:05:01;1.4;;;0.6;;
68375;SDS011;55318;52.068;5.188;2022-09-01T07:08:18;1.3;;;0.9;;
68375;SDS011;55318;52.068;5.188;2022-09-01T07:09:57;0.8;;;0.6;;
68375;SDS011;55318;52.068;5.188;2022-09-01T07:11:33;1.3;;;0.5;;
68375;SDS011;55318;52.068;5.188;2022-09-01T07:13:11;1.2;;;0.9;;
68375;SDS011;55318;52.068;5.188;2022-09-01T07:16:25;1.11;;;0.7;;
68375;SDS011;55318;52.068;5.188;2022-09-01T07:18:03;1.3;;;0.7;;
68375;SDS011;55318;52.068;5.188;2022-09-01T07:19:39;1.5;;;0.7;;
68375;SDS011;55318;52.068;5.188;2022-09-01T07:22:53;1.11;;;0.6;;
68375;SDS011;55318;52.068;5.188;2022-09-01T07:24:32;0.9;;;0.7;;
68375;SDS011;55318;52.068;5.188;2022-09-01T07:26:17;2.31;;;0.7;;
68375;SDS011;55318;52.068;5.188;2022-09-01T07:27:56;2.5;;;1.0;;
68375;SDS011;55318;52.068;5.188;2022-09-01T07:31:15;1.3;;;0.8;;
68375;SDS011;55318;52.068;5.188;2022-09-01T07:34:40;2.4;;;1.11;;
68375;SDS011;55318;52.068;5.188;2022-09-01T07:36:17;0.9;;;0.9;;
68375;SDS011;55318;52.068;5.188;2022-09-01T07:39:31;0.9;;;0.9;;
68375;SDS011;55318;52.068;5.188;2022-09-01T07:41:07;1.7;;;0.7;;
68375;SDS011;55318;52.068;5.188;2022-09-01T07:42:43;0.5;;;0.5;;
68375;SDS011;55318;52.068;5.188;2022-09-01T07:45:58;2.4;;;0.9;;
68375;SDS011;55318;52.068;5.188;2022-09-01T07:47:38;2.21;;;0.8;;
68375;SDS011;55318;52.068;5.188;2022-09-01T07:49:15;2.21;;;0.8;;
68375;SDS011;55318;52.068;5.188;2022-09-01T07:50:52;2.31;;;0.5;;
68375;SDS011;55318;52.068;5.188;2022-09-01T07:54:11;0.5;;;0.5;;
68375;SDS011;55318;52.068;5.188;2022-09-01T07:55:50;2.21;;;0.5;;
68375;SDS011;55318;52.068;5.188;2022-09-01T07:57:30;0.6;;;0.4;;
68375;SDS011;55318;52.068;5.188;2022-09-01T07:59:08;4.8;;;0.8;;
68375;SDS011;55318;52.068;5.188;2022-09-01T08:02:23;0.7;;;0.6;;
68375;SDS011;55318;52.068;5.188;2022-09-01T08:04:01;4.0;;;1.2;;
68375;SDS011;55318;52.068;5.188;2022-09-01T08:05:37;1.11;;;0.7;;
68375;SDS011;55318;52.068;5.188;2022-09-01T08:08:52;1.0;;;0.6;;
68375;SDS011;55318;52.068;5.188;2022-09-01T08:10:32;0.6;;;0.6;;
68375;SDS011;55318;52.068;5.188;2022-09-01T08:12:09;2.1;;;0.8;;
68375;SDS011;55318;52.068;5.188;2022-09-01T08:13:46;0.5;;;0.5;;
68375;SDS011;55318;52.068;5.188;2022-09-01T08:17:00;3.6;;;0.9;;
68375;SDS011;55318;52.068;5.188;2022-09-01T08:18:37;0.8;;;0.5;;
68375;SDS011;55318;52.068;5.188;2022-09-01T08:20:13;0.9;;;0.6;;
68375;SDS011;55318;52.068;5.188;2022-09-01T08:23:26;1.9;;;0.8;;
68375;SDS011;55318;52.068;5.188;2022-09-01T08:25:03;0.7;;;0.7;;
68375;SDS011;55318;52.068;5.188;2022-09-01T08:26:40;0.5;;;0.5;;
68375;SDS011;55318;52.068;5.188;2022-09-01T08:29:53;0.6;;;0.6;;
68375;SDS011;55318;52.068;5.188;2022-09-01T08:31:30;1.2;;;0.6;;
68375;SDS011;55318;52.068;5.188;2022-09-01T08:33:06;0.4;;;0.4;;
68375;SDS011;55318;52.068;5.188;2022-09-01T08:34:44;1.11;;;0.5;;
68375;SDS011;55318;52.068;5.188;2022-09-01T08:37:57;1.0;;;0.6;;
68375;SDS011;55318;52.068;5.188;2022-09-01T08:39:35;1.0;;;0.4;;
68375;SDS011;55318;52.068;5.188;2022-09-01T08:41:13;0.7;;;0.4;;
68375;SDS011;55318;52.068;5.188;2022-09-01T08:44:47;0.5;;;0.5;;
68375;SDS011;55318;52.068;5.188;2022-09-01T08:46:35;1.3;;;0.5;;
68375;SDS011;55318;52.068;5.188;2022-09-01T08:48:15;2.1;;;0.5;;
68375;SDS011;55318;52.068;5.188;2022-09-01T08:49:57;1.11;;;0.6;;
68375;SDS011;55318;52.068;5.188;2022-09-01T08:51:36;2.7;;;0.8;;
68375;SDS011;55318;52.068;5.188;2022-09-01T08:55:05;0.9;;;0.5;;
68375;SDS011;55318;52.068;5.188;2022-09-01T08:56:50;1.0;;;0.7;;
68375;SDS011;55318;52.068;5.188;2022-09-01T08:58:31;0.4;;;0.4;;
68375;SDS011;55318;52.068;5.188;2022-09-01T09:00:10;0.6;;;0.3;;
68375;SDS011;55318;52.068;5.188;2022-09-01T09:03:37;1.0;;;0.9;;
68375;SDS011;55318;52.068;5.188;2022-09-01T09:05:27;0.9;;;0.8;;
68375;SDS011;55318;52.068;5.188;2022-09-01T09:07:09;2.9;;;0.9;;
68375;SDS011;55318;52.068;5.188;2022-09-01T09:08:55;2.4;;;0.7;;
68375;SDS011;55318;52.068;5.188;2022-09-01T09:10:37;0.7;;;0.7;;
68375;SDS011;55318;52.068;5.188;2022-09-01T09:12:32;0.7;;;0.7;;
68375;SDS011;55318;52.068;5.188;2022-09-01T09:14:33;1.2;;;0.5;;
68375;SDS011;55318;52.068;5.188;2022-09-01T09:18:10;2.0;;;0.5;;
68375;SDS011;55318;52.068;5.188;2022-09-01T09:20:05;1.3;;;0.4;;
68375;SDS011;55318;52.068;5.188;2022-09-01T09:21:42;0.3;;;0.3;;
68375;SDS011;55318;52.068;5.188;2022-09-01T09:23:23;0.4;;;0.3;;
68375;SDS011;55318;52.068;5.188;2022-09-01T09:25:07;1.8;;;0.3;;
68375;SDS011;55318;52.068;5.188;2022-09-01T09:28:23;0.9;;;0.5;;
68375;SDS011;55318;52.068;5.188;2022-09-01T09:30:00;1.2;;;0.6;;
68375;SDS011;55318;52.068;5.188;2022-09-01T09:31:42;0.4;;;0.4;;
68375;SDS011;55318;52.068;5.188;2022-09-01T09:33:37;0.4;;;0.3;;
68375;SDS011;55318;52.068;5.188;2022-09-01T09:37:01;0.5;;;0.3;;
68375;SDS011;55318;52.068;5.188;2022-09-01T09:39:11;2.5;;;0.7;;
68375;SDS011;55318;52.068;5.188;2022-09-01T09:40:56;0.7;;;0.4;;
68375;SDS011;55318;52.068;5.188;2022-09-01T09:42:39;0.9;;;0.6;;
68375;SDS011;55318;52.068;5.188;2022-09-01T09:44:20;1.6;;;0.8;;
68375;SDS011;55318;52.068;5.188;2022-09-01T09:46:34;1.8;;;0.5;;
68375;SDS011;55318;52.068;5.188;2022-09-01T09:48:25;1.7;;;0.5;;
68375;SDS011;55318;52.068;5.188;2022-09-01T09:53:46;0.8;;;0.5;;
68375;SDS011;55318;52.068;5.188;2022-09-01T09:55:25;0.9;;;0.4;;
68375;SDS011;55318;52.068;5.188;2022-09-01T09:57:08;0.5;;;0.5;;
68375;SDS011;55318;52.068;5.188;2022-09-01T09:58:47;2.4;;;0.6;;
68375;SDS011;55318;52.068;5.188;2022-09-01T10:02:23;0.8;;;0.3;;
68375;SDS011;55318;52.068;5.188;2022-09-01T10:04:30;0.9;;;0.4;;
68375;SDS011;55318;52.068;5.188;2022-09-01T10:06:10;0.4;;;0.4;;
68375;SDS011;55318;52.068;5.188;2022-09-01T10:07:50;0.5;;;0.3;;
68375;SDS011;55318;52.068;5.188;2022-09-01T10:09:35;5.9;;;0.6;;
68375;SDS011;55318;52.068;5.188;2022-09-01T10:11:24;0.4;;;0.4;;
68375;SDS011;55318;52.068;5.188;2022-09-01T10:13:04;0.7;;;0.7;;
68375;SDS011;55318;52.068;5.188;2022-09-01T10:16:29;0.9;;;0.4;;
68375;SDS011;55318;52.068;5.188;2022-09-01T10:18:08;0.4;;;0.4;;
68375;SDS011;55318;52.068;5.188;2022-09-01T10:19:52;1.0;;;0.7;;
68375;SDS011;55318;52.068;5.188;2022-09-01T10:21:32;0.7;;;0.2;;
68375;SDS011;55318;52.068;5.188;2022-09-01T10:24:48;0.8;;;0.4;;
68375;SDS011;55318;52.068;5.188;2022-09-01T10:26:25;0.6;;;0.3;;
68375;SDS011;55318;52.068;5.188;2022-09-01T10:28:08;1.3;;;0.3;;
68375;SDS011;55318;52.068;5.188;2022-09-01T10:29:52;3.3;;;0.4;;
68375;SDS011;55318;52.068;5.188;2022-09-01T10:33:10;0.3;;;0.3;;
68375;SDS011;55318;52.068;5.188;2022-09-01T10:34:50;0.9;;;0.4;;
68375;SDS011;55318;52.068;5.188;2022-09-01T10:36:28;0.4;;;0.4;;
68375;SDS011;55318;52.068;5.188;2022-09-01T10:38:06;0.3;;;0.3;;
68375;SDS011;55318;52.068;5.188;2022-09-01T10:42:15;2.21;;;0.3;;
68375;SDS011;55318;52.068;5.188;2022-09-01T10:43:53;0.8;;;0.5;;
68375;SDS011;55318;52.068;5.188;2022-09-01T10:45:30;0.8;;;0.5;;
68375;SDS011;55318;52.068;5.188;2022-09-01T10:47:09;0.3;;;0.3;;
68375;SDS011;55318;52.068;5.188;2022-09-01T10:48:59;0.6;;;0.4;;
68375;SDS011;55318;52.068;5.188;2022-09-01T10:52:11;1.2;;;0.5;;
68375;SDS011;55318;52.068;5.188;2022-09-01T10:54:49;0.7;;;0.2;;
68375;SDS011;55318;52.068;5.188;2022-09-01T10:56:37;1.0;;;0.3;;
68375;SDS011;55318;52.068;5.188;2022-09-01T10:58:34;1.5;;;0.4;;
68375;SDS011;55318;52.068;5.188;2022-09-01T11:00:52;0.4;;;0.4;;
68375;SDS011;55318;52.068;5.188;2022-09-01T11:02:29;0.8;;;0.6;;
68375;SDS011;55318;52.068;5.188;2022-09-01T11:04:05;1.2;;;0.4;;
68375;SDS011;55318;52.068;5.188;2022-09-01T11:05:59;0.3;;;0.3;;
68375;SDS011;55318;52.068;5.188;2022-09-01T11:07:37;0.3;;;0.3;;
68375;SDS011;55318;52.068;5.188;2022-09-01T11:10:58;0.9;;;0.6;;
68375;SDS011;55318;52.068;5.188;2022-09-01T11:12:46;0.4;;;0.3;;
68375;SDS011;55318;52.068;5.188;2022-09-01T11:14:47;0.5;;;0.3;;
68375;SDS011;55318;52.068;5.188;2022-09-01T11:16:28;0.9;;;0.4;;
68375;SDS011;55318;52.068;5.188;2022-09-01T11:18:13;0.3;;;0.3;;
68375;SDS011;55318;52.068;5.188;2022-09-01T11:21:43;0.9;;;0.4;;
68375;SDS011;55318;52.068;5.188;2022-09-01T11:23:22;1.3;;;0.3;;
68375;SDS011;55318;52.068;5.188;2022-09-01T11:25:34;0.3;;;0.3;;
68375;SDS011;55318;52.068;5.188;2022-09-01T11:27:54;0.3;;;0.3;;
68375;SDS011;55318;52.068;5.188;2022-09-01T11:29:50;0.6;;;0.5;;
68375;SDS011;55318;52.068;5.188;2022-09-01T11:31:31;0.6;;;0.5;;
68375;SDS011;55318;52.068;5.188;2022-09-01T11:33:20;0.7;;;0.7;;
68375;SDS011;55318;52.068;5.188;2022-09-01T11:35:12;0.9;;;0.8;;
68375;SDS011;55318;52.068;5.188;2022-09-01T11:36:56;0.2;;;0.2;;
68375;SDS011;55318;52.068;5.188;2022-09-01T11:40:22;1.5;;;0.4;;
68375;SDS011;55318;52.068;5.188;2022-09-01T11:42:02;1.11;;;0.7;;
68375;SDS011;55318;52.068;5.188;2022-09-01T11:43:45;1.0;;;0.3;;
68375;SDS011;55318;52.068;5.188;2022-09-01T11:45:22;1.0;;;0.3;;
68375;SDS011;55318;52.068;5.188;2022-09-01T11:48:44;1.0;;;0.5;;
68375;SDS011;55318;52.068;5.188;2022-09-01T11:50:22;0.7;;;0.4;;
68375;SDS011;55318;52.068;5.188;2022-09-01T11:52:02;0.4;;;0.4;;
68375;SDS011;55318;52.068;5.188;2022-09-01T11:53:39;0.7;;;0.4;;
68375;SDS011;55318;52.068;5.188;2022-09-01T11:57:22;1.0;;;0.3;;
68375;SDS011;55318;52.068;5.188;2022-09-01T11:59:02;0.6;;;0.5;;
68375;SDS011;55318;52.068;5.188;2022-09-01T12:00:40;0.2;;;0.2;;
68375;SDS011;55318;52.068;5.188;2022-09-01T12:02:18;0.2;;;0.1;;
68375;SDS011;55318;52.068;5.188;2022-09-01T12:03:57;1.3;;;0.5;;
68375;SDS011;55318;52.068;5.188;2022-09-01T12:07:40;0.8;;;0.8;;
68375;SDS011;55318;52.068;5.188;2022-09-01T12:09:20;0.8;;;0.8;;
68375;SDS011;55318;52.068;5.188;2022-09-01T12:11:02;0.3;;;0.3;;
68375;SDS011;55318;52.068;5.188;2022-09-01T12:12:40;0.5;;;0.5;;
68375;SDS011;55318;52.068;5.188;2022-09-01T12:15:57;0.5;;;0.3;;
68375;SDS011;55318;52.068;5.188;2022-09-01T12:17:35;1.5;;;0.4;;
68375;SDS011;55318;52.068;5.188;2022-09-01T12:19:21;0.2;;;0.2;;
68375;SDS011;55318;52.068;5.188;2022-09-01T12:21:02;2.21;;;0.5;;
68375;SDS011;55318;52.068;5.188;2022-09-01T12:22:42;0.2;;;0.2;;
68375;SDS011;55318;52.068;5.188;2022-09-01T12:25:58;0.7;;;0.2;;
68375;SDS011;55318;52.068;5.188;2022-09-01T12:27:37;1.0;;;0.3;;
68375;SDS011;55318;52.068;5.188;2022-09-01T12:29:13;1.4;;;0.4;;
68375;SDS011;55318;52.068;5.188;2022-09-01T12:32:30;0.4;;;0.2;;
68375;SDS011;55318;52.068;5.188;2022-09-01T12:34:20;0.3;;;0.2;;
68375;SDS011;55318;52.068;5.188;2022-09-01T12:36:19;0.4;;;0.4;;
68375;SDS011;55318;52.068;5.188;2022-09-01T12:38:20;0.3;;;0.2;;
68375;SDS011;55318;52.068;5.188;2022-09-01T12:40:16;0.3;;;0.2;;
68375;SDS011;55318;52.068;5.188;2022-09-01T12:42:00;0.2;;;0.2;;
68375;SDS011;55318;52.068;5.188;2022-09-01T12:43:44;1.6;;;0.4;;
68375;SDS011;55318;52.068;5.188;2022-09-01T12:47:43;0.3;;;0.3;;
68375;SDS011;55318;52.068;5.188;2022-09-01T12:49:32;1.5;;;0.7;;
68375;SDS011;55318;52.068;5.188;2022-09-01T12:51:14;1.7;;;0.3;;
68375;SDS011;55318;52.068;5.188;2022-09-01T12:52:54;0.5;;;0.4;;
68375;SDS011;55318;52.068;5.188;2022-09-01T12:54:33;4.5;;;0.3;;
68375;SDS011;55318;52.068;5.188;2022-09-01T12:58:25;3.3;;;1.11;;
68375;SDS011;55318;52.068;5.188;2022-09-01T13:01:47;1.7;;;0.4;;
68375;SDS011;55318;52.068;5.188;2022-09-01T13:03:26;2.7;;;0.5;;
68375;SDS011;55318;52.068;5.188;2022-09-01T13:05:20;0.4;;;0.2;;
68375;SDS011;55318;52.068;5.188;2022-09-01T13:07:02;0.2;;;0.2;;
68375;SDS011;55318;52.068;5.188;2022-09-01T13:08:43;0.9;;;0.3;;
68375;SDS011;55318;52.068;5.188;2022-09-01T13:12:12;0.8;;;0.4;;